Time;durP1;ratioP1;P1;durP2;ratioP2;P2;SDS_P1;SDS_P2;PMS_P1;PMS_P2;Temp;Humidity;BMP_temperature;BMP_pressure;BME280_temperature;BME280_humidity;BME280_pressure;Samples;Min_cycle;Max_cycle;Signal;HPM_P1;HPM_P2
2022/01/26 00:07:43;;;;;;;43.25;18.08;;;;;;;;;;5024710;28;20129;-73
2022/01/26 00:10:09;;;;;;;48.33;19.67;;;;;;;;;;5023325;28;20506;-73
2022/01/26 00:12:35;;;;;;;51.38;22.75;;;;;;;;;;5017378;28;20022;-73
2022/01/26 00:15:01;;;;;;;47.67;22.58;;;;;;;;;;5013437;28;20480;-74
2022/01/26 00:17:27;;;;;;;42.05;20.52;;;;;;;;;;5026978;28;20495;-74
2022/01/26 00:20:01;;;;;;;45.20;19.90;;;;;;;;;;5021417;28;20030;-73
2022/01/26 00:41:08;;;;;;;47.28;21.45;;;;;;;;;;5023800;28;20180;-74
2022/01/26 00:43:35;;;;;;;43.88;19.92;;;;;;;;;;5029268;28;20022;-74
2022/01/26 00:46:03;;;;;;;43.70;20.77;;;;;;;;;;5025863;28;20067;-74
2022/01/26 00:48:31;;;;;;;45.22;21.25;;;;;;;;;;5021872;28;20022;-73
2022/01/26 00:51:00;;;;;;;45.63;20.70;;;;;;;;;;5032161;28;20167;-74
2022/01/26 00:53:33;;;;;;;43.15;21.35;;;;;;;;;;5020635;28;20104;-75
2022/01/26 00:55:59;;;;;;;42.40;19.67;;;;;;;;;;5024537;28;20108;-75
2022/01/26 00:58:25;;;;;;;40.97;19.83;;;;;;;;;;5027302;28;20021;-72
2022/01/26 01:00:51;;;;;;;50.08;22.58;;;;;;;;;;5018707;28;20041;-74
2022/01/26 01:03:18;;;;;;;48.85;21.40;;;;;;;;;;5030863;28;20021;-75
2022/01/26 01:05:53;;;;;;;48.83;22.02;;;;;;;;;;5022863;28;20028;-74
2022/01/26 01:08:22;;;;;;;39.03;20.77;;;;;;;;;;5022640;28;20026;-74
2022/01/26 01:10:51;;;;;;;46.92;23.42;;;;;;;;;;5031781;28;20095;-74
2022/01/26 01:13:20;;;;;;;44.05;21.10;;;;;;;;;;5017526;28;20021;-74
2022/01/26 01:15:46;;;;;;;41.67;20.55;;;;;;;;;;5026961;28;20018;-74
2022/01/26 01:18:29;;;;;;;44.60;20.70;;;;;;;;;;5027169;28;20425;-74
2022/01/26 01:21:40;;;;;;;38.95;19.73;;;;;;;;;;5018792;28;20458;-75
2022/01/26 01:31:44;;;;;;;39.53;17.80;;;;;;;;;;5028013;28;20022;-74
2022/01/26 01:34:11;;;;;;;43.63;20.45;;;;;;;;;;5014815;28;20038;-74
2022/01/26 01:36:40;;;;;;;43.30;20.27;;;;;;;;;;5029771;28;20030;-73
2022/01/26 01:39:07;;;;;;;47.70;21.85;;;;;;;;;;5017784;28;20069;-73
2022/01/26 01:41:34;;;;;;;38.13;18.10;;;;;;;;;;5024005;28;20025;-75
2022/01/26 01:44:00;;;;;;;40.55;19.63;;;;;;;;;;5023220;28;20018;-74
2022/01/26 01:46:27;;;;;;;44.47;21.20;;;;;;;;;;5028003;28;20049;-73
2022/01/26 01:48:53;;;;;;;38.45;18.50;;;;;;;;;;5017185;28;20034;-74
2022/01/26 01:51:26;;;;;;;36.20;18.33;;;;;;;;;;5020264;28;20439;-74
2022/01/26 01:53:52;;;;;;;37.33;18.23;;;;;;;;;;5025183;28;20021;-75
2022/01/26 01:56:22;;;;;;;35.05;18.30;;;;;;;;;;5026530;28;20541;-74
2022/01/26 01:58:48;;;;;;;28.33;13.48;;;;;;;;;;5017903;28;20036;-74
2022/01/26 02:01:14;;;;;;;39.10;18.83;;;;;;;;;;5030513;28;20105;-74
2022/01/26 02:03:40;;;;;;;43.67;19.95;;;;;;;;;;5020795;28;20071;-74
2022/01/26 02:06:06;;;;;;;36.60;18.92;;;;;;;;;;5020124;28;20029;-74
2022/01/26 02:08:32;;;;;;;40.28;19.65;;;;;;;;;;5027081;28;20121;-75
2022/01/26 02:10:58;;;;;;;36.42;17.95;;;;;;;;;;5016061;28;20338;-75
2022/01/26 02:13:29;;;;;;;39.45;19.10;;;;;;;;;;5028858;28;20450;-75
2022/01/26 02:16:08;;;;;;;39.47;19.27;;;;;;;;;;5023363;28;20037;-74
2022/01/26 02:56:15;;;;;;;37.30;18.58;;;;;;;;;;5022295;28;20054;-74
2022/01/26 03:01:36;;;;;;;35.78;17.20;;;;;;;;;;5015981;28;20065;-74
2022/01/26 03:04:11;;;;;;;34.25;17.70;;;;;;;;;;5021255;28;20432;-74
2022/01/26 03:06:49;;;;;;;33.10;16.33;;;;;;;;;;5027854;28;20026;-75
2022/01/26 03:09:21;;;;;;;32.00;16.70;;;;;;;;;;5016557;28;20021;-74
2022/01/26 03:11:48;;;;;;;34.97;18.02;;;;;;;;;;5024946;28;20029;-74
2022/01/26 03:14:36;;;;;;;36.17;17.55;;;;;;;;;;5023116;28;20025;-74
2022/01/26 03:17:10;;;;;;;36.65;17.73;;;;;;;;;;5015931;28;20037;-76
2022/01/26 03:19:50;;;;;;;28.58;15.63;;;;;;;;;;5025900;28;20037;-76
2022/01/26 03:28:10;;;;;;;28.63;15.57;;;;;;;;;;5024530;28;20025;-74
2022/01/26 03:28:16;;;;;;;27.67;14.43;;;;;;;;;;5024601;28;20117;-76
2022/01/26 03:30:51;;;;;;;27.10;15.23;;;;;;;;;;5026162;28;20112;-76
2022/01/26 03:36:10;;;;;;;26.67;14.15;;;;;;;;;;5022468;28;20088;-74
2022/01/26 03:38:59;;;;;;;28.83;15.55;;;;;;;;;;5027087;28;20037;-74
2022/01/26 03:43:57;;;;;;;31.52;15.75;;;;;;;;;;5022763;28;20030;-73
2022/01/26 03:46:24;;;;;;;27.63;14.95;;;;;;;;;;5025345;28;20365;-73
2022/01/26 03:48:50;;;;;;;29.00;16.15;;;;;;;;;;5015911;28;20022;-75
2022/01/26 03:51:16;;;;;;;31.92;15.95;;;;;;;;;;5028550;28;20117;-74
2022/01/26 03:53:42;;;;;;;32.15;17.25;;;;;;;;;;5019429;28;20017;-75
2022/01/26 03:56:08;;;;;;;24.73;13.93;;;;;;;;;;5020020;28;20495;-75
2022/01/26 03:58:34;;;;;;;29.92;15.70;;;;;;;;;;5026491;28;20120;-74
2022/01/26 04:01:00;;;;;;;27.42;14.30;;;;;;;;;;5015537;28;20030;-74
2022/01/26 04:03:26;;;;;;;30.00;15.80;;;;;;;;;;5026740;28;20468;-74
2022/01/26 04:05:52;;;;;;;27.60;14.82;;;;;;;;;;5020943;28;20040;-76
2022/01/26 04:08:27;;;;;;;26.08;14.77;;;;;;;;;;5018463;28;20025;-75
2022/01/26 04:13:28;;;;;;;28.08;16.02;;;;;;;;;;5013484;28;20515;-74
2022/01/26 04:15:54;;;;;;;27.63;14.65;;;;;;;;;;5023093;28;20025;-74
2022/01/26 04:18:26;;;;;;;25.85;14.38;;;;;;;;;;5024695;28;20025;-75
2022/01/26 04:20:55;;;;;;;25.30;13.85;;;;;;;;;;5015438;28;20487;-75
2022/01/26 04:23:36;;;;;;;24.98;13.80;;;;;;;;;;5026522;28;20077;-74
2022/01/26 04:26:02;;;;;;;24.00;13.95;;;;;;;;;;5022163;28;20032;-73
2022/01/26 04:28:36;;;;;;;23.65;14.05;;;;;;;;;;5017797;28;20558;-73
2022/01/26 04:31:02;;;;;;;27.20;15.30;;;;;;;;;;5000768;28;20201;-74
2022/01/26 04:33:29;;;;;;;24.70;14.30;;;;;;;;;;5025658;28;20468;-74
2022/01/26 04:35:55;;;;;;;26.45;14.07;;;;;;;;;;5010295;28;20041;-74
2022/01/26 04:43:39;;;;;;;25.48;13.52;;;;;;;;;;5024510;28;20475;-70
2022/01/26 04:46:06;;;;;;;24.45;14.23;;;;;;;;;;5006237;28;20447;-70
2022/01/26 04:48:32;;;;;;;24.85;13.95;;;;;;;;;;5001824;28;20026;-70
2022/01/26 04:50:58;;;;;;;23.05;13.50;;;;;;;;;;5030618;28;20406;-71
2022/01/26 04:53:24;;;;;;;25.88;15.30;;;;;;;;;;5019270;28;20037;-71
2022/01/26 04:55:52;;;;;;;26.08;14.40;;;;;;;;;;5025230;28;20025;-71
2022/01/26 04:58:18;;;;;;;22.65;13.32;;;;;;;;;;5008308;28;20053;-71
2022/01/26 05:00:44;;;;;;;26.40;14.10;;;;;;;;;;5016420;28;20037;-70
2022/01/26 05:03:10;;;;;;;26.73;14.77;;;;;;;;;;5028762;28;20026;-70
2022/01/26 05:05:36;;;;;;;24.98;14.13;;;;;;;;;;4985143;28;20027;-71
2022/01/26 05:08:02;;;;;;;25.95;14.77;;;;;;;;;;5023068;28;20108;-71
2022/01/26 05:10:28;;;;;;;26.40;14.60;;;;;;;;;;5027690;28;20029;-71
2022/01/26 05:12:54;;;;;;;30.05;15.35;;;;;;;;;;5017523;28;20065;-72
2022/01/26 05:15:23;;;;;;;25.52;14.07;;;;;;;;;;5029023;28;20043;-71
2022/01/26 05:17:49;;;;;;;27.35;15.93;;;;;;;;;;5020316;28;20491;-71
2022/01/26 05:20:15;;;;;;;25.15;14.55;;;;;;;;;;5019260;28;20029;-73
2022/01/26 05:22:43;;;;;;;24.85;14.80;;;;;;;;;;5026873;28;20033;-70
2022/01/26 05:25:09;;;;;;;26.23;14.35;;;;;;;;;;5015934;28;20030;-72
2022/01/26 05:27:35;;;;;;;24.58;14.20;;;;;;;;;;5028330;28;20029;-69
2022/01/26 05:30:01;;;;;;;29.05;15.93;;;;;;;;;;5024949;28;20022;-73
2022/01/26 05:32:27;;;;;;;26.20;14.50;;;;;;;;;;5021179;28;20029;-72
2022/01/26 05:34:53;;;;;;;26.75;15.13;;;;;;;;;;5030660;28;20026;-72
2022/01/26 05:37:19;;;;;;;31.13;15.80;;;;;;;;;;5019586;28;20391;-73
2022/01/26 05:39:45;;;;;;;29.63;16.83;;;;;;;;;;5008745;28;20038;-72
2022/01/26 05:42:11;;;;;;;28.02;16.10;;;;;;;;;;5026479;28;20029;-71
2022/01/26 05:44:37;;;;;;;27.88;15.02;;;;;;;;;;5019573;28;20026;-71
2022/01/26 05:47:06;;;;;;;29.10;15.90;;;;;;;;;;5013250;28;20022;-70
2022/01/26 05:49:32;;;;;;;28.83;16.60;;;;;;;;;;5020356;28;20388;-71
2022/01/26 05:51:58;;;;;;;28.33;17.75;;;;;;;;;;5024933;28;20040;-72
2022/01/26 05:54:24;;;;;;;29.60;16.80;;;;;;;;;;5009349;28;20038;-70
2022/01/26 05:56:50;;;;;;;31.52;16.20;;;;;;;;;;5000065;28;20775;-69
2022/01/26 05:59:20;;;;;;;30.77;17.15;;;;;;;;;;5029858;28;20026;-70
2022/01/26 06:01:47;;;;;;;23.95;12.98;;;;;;;;;;5004526;28;20025;-72
2022/01/26 06:04:13;;;;;;;29.63;17.08;;;;;;;;;;5022145;28;20109;-71
2022/01/26 06:06:40;;;;;;;28.98;17.17;;;;;;;;;;5029029;28;20482;-71
2022/01/26 06:09:05;;;;;;;28.85;17.45;;;;;;;;;;5017142;28;20129;-71
2022/01/26 06:11:31;;;;;;;33.03;16.73;;;;;;;;;;5027653;28;20026;-70
2022/01/26 06:13:57;;;;;;;29.50;16.85;;;;;;;;;;5022802;28;20018;-71
2022/01/26 06:16:24;;;;;;;32.17;17.38;;;;;;;;;;5020268;28;20022;-71
2022/01/26 06:18:50;;;;;;;30.65;17.42;;;;;;;;;;5012210;28;20025;-72
2022/01/26 06:21:16;;;;;;;33.85;18.50;;;;;;;;;;5017238;28;20079;-71
2022/01/26 06:23:42;;;;;;;32.63;17.05;;;;;;;;;;5008145;28;20026;-72
2022/01/26 06:26:08;;;;;;;32.80;18.38;;;;;;;;;;5024290;28;20384;-71
2022/01/26 06:28:34;;;;;;;31.27;18.13;;;;;;;;;;5018730;28;20021;-72
2022/01/26 06:31:10;;;;;;;29.10;17.63;;;;;;;;;;5027051;28;20026;-71
2022/01/26 06:33:36;;;;;;;30.60;17.70;;;;;;;;;;5020336;28;20123;-71
2022/01/26 06:36:03;;;;;;;30.15;16.83;;;;;;;;;;5021444;28;20373;-73
2022/01/26 06:38:29;;;;;;;30.30;17.40;;;;;;;;;;5024153;28;20048;-71
2022/01/26 06:40:56;;;;;;;29.55;16.23;;;;;;;;;;4998725;28;20037;-71
2022/01/26 06:43:24;;;;;;;27.67;17.13;;;;;;;;;;5002625;28;20029;-72
2022/01/26 06:45:55;;;;;;;32.65;18.75;;;;;;;;;;5006746;28;20053;-69
2022/01/26 06:50:56;;;;;;;29.70;16.90;;;;;;;;;;5016575;28;20033;-72
2022/01/26 06:53:22;;;;;;;28.05;16.50;;;;;;;;;;5018969;28;20029;-71
2022/01/26 06:55:48;;;;;;;34.28;17.33;;;;;;;;;;5025188;28;20040;-69
2022/01/26 06:58:14;;;;;;;30.00;17.75;;;;;;;;;;5024624;28;20091;-70
2022/01/26 07:00:40;;;;;;;27.25;17.42;;;;;;;;;;5017535;28;20049;-70
2022/01/26 07:03:06;;;;;;;27.50;15.98;;;;;;;;;;5028838;28;20475;-71
2022/01/26 07:05:32;;;;;;;26.45;15.73;;;;;;;;;;5018890;28;20022;-71
2022/01/26 07:07:58;;;;;;;24.33;13.82;;;;;;;;;;5002572;28;20051;-72
2022/01/26 07:10:24;;;;;;;23.73;13.35;;;;;;;;;;5006570;28;20018;-74
2022/01/26 07:12:50;;;;;;;23.50;14.77;;;;;;;;;;4989183;28;20037;-74
2022/01/26 07:23:37;;;;;;;20.17;12.73;;;;;;;;;;5002612;28;20091;-74
2022/01/26 07:26:04;;;;;;;20.48;12.15;;;;;;;;;;5018096;28;20025;-67
2022/01/26 07:28:35;;;;;;;21.30;12.13;;;;;;;;;;5022364;28;20080;-70
2022/01/26 07:31:04;;;;;;;23.35;11.30;;;;;;;;;;5016157;28;20018;-71
2022/01/26 07:33:30;;;;;;;21.25;13.43;;;;;;;;;;4999966;28;20013;-70
2022/01/26 07:35:56;;;;;;;25.02;13.35;;;;;;;;;;5024994;28;20499;-67
2022/01/26 07:38:22;;;;;;;21.75;12.35;;;;;;;;;;5022730;28;20026;-70
2022/01/26 07:40:48;;;;;;;20.08;12.82;;;;;;;;;;5012542;28;20042;-70
2022/01/26 07:43:14;;;;;;;24.50;13.13;;;;;;;;;;5027872;28;20036;-69
2022/01/26 07:45:41;;;;;;;19.98;12.07;;;;;;;;;;5017479;28;20056;-70
2022/01/26 07:48:08;;;;;;;20.13;11.90;;;;;;;;;;5022582;28;20022;-71
2022/01/26 07:50:34;;;;;;;18.15;11.40;;;;;;;;;;5024525;28;20487;-71
2022/01/26 07:53:02;;;;;;;19.70;10.82;;;;;;;;;;4997718;28;20034;-71
2022/01/26 07:55:28;;;;;;;20.00;10.73;;;;;;;;;;5027380;28;20530;-68
2022/01/26 07:57:55;;;;;;;22.30;10.88;;;;;;;;;;5012314;28;20037;-71
2022/01/26 08:00:21;;;;;;;18.05;10.88;;;;;;;;;;5021335;28;20022;-73
2022/01/26 08:02:48;;;;;;;17.35;10.38;;;;;;;;;;5008616;28;20041;-76
2022/01/26 08:05:15;;;;;;;17.02;9.25;;;;;;;;;;5024321;28;20097;-73
2022/01/26 08:07:41;;;;;;;19.98;10.18;;;;;;;;;;5011028;28;20108;-74
2022/01/26 08:10:08;;;;;;;15.95;9.95;;;;;;;;;;5004057;28;20022;-73
2022/01/26 08:12:34;;;;;;;18.35;10.43;;;;;;;;;;5024205;28;20038;-72
2022/01/26 08:15:00;;;;;;;17.42;10.38;;;;;;;;;;5005496;28;20048;-72
2022/01/26 08:17:26;;;;;;;18.42;10.57;;;;;;;;;;5027178;28;20539;-69
2022/01/26 08:19:54;;;;;;;17.60;9.88;;;;;;;;;;5018207;28;20399;-70
2022/01/26 08:22:21;;;;;;;17.98;10.57;;;;;;;;;;5020753;28;20034;-74
2022/01/26 08:24:49;;;;;;;43.20;19.05;;;;;;;;;;5007615;28;20116;-72
2022/01/26 08:27:17;;;;;;;83.15;31.00;;;;;;;;;;4997210;28;20025;-72
2022/01/26 08:29:47;;;;;;;102.85;41.70;;;;;;;;;;5025824;28;20018;-72
2022/01/26 08:32:13;;;;;;;28.73;14.15;;;;;;;;;;5021465;28;20079;-71
2022/01/26 08:34:39;;;;;;;44.92;17.90;;;;;;;;;;5017836;28;20030;-71
2022/01/26 08:37:06;;;;;;;40.42;16.67;;;;;;;;;;5010090;28;20561;-73
2022/01/26 08:39:32;;;;;;;14.55;9.45;;;;;;;;;;4997519;28;20025;-72
2022/01/26 08:41:59;;;;;;;61.67;22.23;;;;;;;;;;5023415;28;20029;-72
2022/01/26 08:44:24;;;;;;;31.05;11.88;;;;;;;;;;5006763;28;20040;-71
2022/01/26 08:46:51;;;;;;;57.00;20.38;;;;;;;;;;5025920;28;20025;-71
2022/01/26 08:49:18;;;;;;;26.05;11.88;;;;;;;;;;5011701;28;20104;-71
2022/01/26 08:51:44;;;;;;;72.85;25.77;;;;;;;;;;4991971;28;20022;-71
2022/01/26 08:54:11;;;;;;;25.73;12.57;;;;;;;;;;5009282;28;20018;-71
2022/01/26 08:56:37;;;;;;;40.45;18.13;;;;;;;;;;4993015;28;20033;-72
2022/01/26 08:59:03;;;;;;;57.40;22.00;;;;;;;;;;4989649;28;20129;-71
2022/01/26 09:01:29;;;;;;;48.35;18.83;;;;;;;;;;5013392;28;20050;-72
2022/01/26 09:03:55;;;;;;;21.00;11.07;;;;;;;;;;5014513;28;20404;-71
2022/01/26 09:06:21;;;;;;;48.78;20.15;;;;;;;;;;5014719;28;20093;-72
2022/01/26 09:08:55;;;;;;;29.25;14.68;;;;;;;;;;5014528;28;20507;-72
2022/01/26 09:11:22;;;;;;;31.00;13.55;;;;;;;;;;4996917;28;20025;-71
2022/01/26 09:13:56;;;;;;;33.50;16.40;;;;;;;;;;5014256;28;20030;-71
2022/01/26 09:16:24;;;;;;;30.00;14.27;;;;;;;;;;5014552;28;20037;-71
2022/01/26 09:18:52;;;;;;;23.98;12.93;;;;;;;;;;5008766;28;20025;-70
2022/01/26 09:21:21;;;;;;;30.95;15.15;;;;;;;;;;5014809;28;20026;-71
2022/01/26 09:23:47;;;;;;;32.13;15.90;;;;;;;;;;5014481;28;20400;-71
2022/01/26 09:26:13;;;;;;;21.75;12.02;;;;;;;;;;5014525;28;20057;-71
2022/01/26 09:28:39;;;;;;;37.65;17.20;;;;;;;;;;5014582;28;20022;-73
2022/01/26 09:31:05;;;;;;;21.30;11.25;;;;;;;;;;5014723;28;20041;-71
2022/01/26 09:33:31;;;;;;;49.03;19.15;;;;;;;;;;5013226;28;20033;-73
2022/01/26 09:35:57;;;;;;;21.80;11.88;;;;;;;;;;5014804;28;20065;-74
2022/01/26 09:38:23;;;;;;;21.27;11.55;;;;;;;;;;5005334;28;20109;-72
2022/01/26 09:40:50;;;;;;;36.10;16.60;;;;;;;;;;4994668;28;20105;-71
2022/01/26 09:43:17;;;;;;;34.45;14.82;;;;;;;;;;4994593;28;20116;-71
2022/01/26 09:45:43;;;;;;;42.15;18.98;;;;;;;;;;4994805;28;20026;-72
2022/01/26 09:48:10;;;;;;;25.55;12.98;;;;;;;;;;4994976;28;20030;-71
2022/01/26 09:50:37;;;;;;;27.58;14.88;;;;;;;;;;4994756;28;20525;-72
2022/01/26 09:53:03;;;;;;;23.60;13.27;;;;;;;;;;4994537;28;20027;-72
2022/01/26 09:55:30;;;;;;;26.00;13.43;;;;;;;;;;4994709;28;20404;-72
2022/01/26 09:57:59;;;;;;;36.05;16.58;;;;;;;;;;4994357;28;20030;-71
2022/01/26 10:00:26;;;;;;;27.92;13.10;;;;;;;;;;5011743;28;20044;-71
2022/01/26 10:02:58;;;;;;;37.22;16.55;;;;;;;;;;5014129;28;20392;-73
2022/01/26 10:05:25;;;;;;;36.88;16.60;;;;;;;;;;5014299;28;20018;-72
2022/01/26 10:08:08;;;;;;;36.70;16.02;;;;;;;;;;5014264;28;20101;-71
2022/01/26 10:16:36;;;;;;;51.25;19.88;;;;;;;;;;5009904;28;20118;-73
2022/01/26 10:18:57;;;;;;;36.17;14.75;;;;;;;;;;4993484;28;20045;-73
2022/01/26 10:21:24;;;;;;;30.85;13.57;;;;;;;;;;4994051;28;20030;-70
2022/01/26 10:23:52;;;;;;;26.33;12.13;;;;;;;;;;4994028;28;20523;-71
2022/01/26 10:26:19;;;;;;;32.67;14.93;;;;;;;;;;4976854;28;20057;-72
2022/01/26 10:28:53;;;;;;;32.92;13.85;;;;;;;;;;4976820;28;20035;-72
2022/01/26 10:31:20;;;;;;;25.63;11.27;;;;;;;;;;4994315;28;20049;-72
2022/01/26 10:34:12;;;;;;;22.38;10.55;;;;;;;;;;4978368;28;20484;-72
2022/01/26 10:36:41;;;;;;;24.08;10.52;;;;;;;;;;4991066;28;20037;-71
2022/01/26 10:41:37;;;;;;;39.40;14.40;;;;;;;;;;5027562;23;20056;-67
2022/01/26 10:44:04;;;;;;;35.17;14.32;;;;;;;;;;5012756;28;20038;-68
2022/01/26 10:46:32;;;;;;;19.23;7.65;;;;;;;;;;5013557;28;20399;-71
2022/01/26 10:49:42;;;;;;;36.28;13.70;;;;;;;;;;5012065;28;20018;-70
2022/01/26 10:52:18;;;;;;;22.15;9.27;;;;;;;;;;4993681;28;20057;-71
2022/01/26 10:54:45;;;;;;;19.85;9.35;;;;;;;;;;4993840;28;20038;-71
2022/01/26 10:57:12;;;;;;;13.77;7.00;;;;;;;;;;4993788;28;20077;-70
2022/01/26 10:59:43;;;;;;;31.38;12.63;;;;;;;;;;4993804;28;20427;-70
2022/01/26 11:02:10;;;;;;;13.77;6.97;;;;;;;;;;4989340;28;20121;-71
2022/01/26 11:04:37;;;;;;;31.40;13.95;;;;;;;;;;4974188;28;20552;-70
2022/01/26 11:07:04;;;;;;;16.00;7.93;;;;;;;;;;4975600;28;20393;-71
2022/01/26 11:09:32;;;;;;;18.67;8.70;;;;;;;;;;4979433;28;20490;-71
2022/01/26 11:12:11;;;;;;;19.33;8.77;;;;;;;;;;4977892;28;20018;-71
2022/01/26 11:14:45;;;;;;;11.82;6.57;;;;;;;;;;4977258;28;20548;-70
2022/01/26 11:17:13;;;;;;;15.70;7.78;;;;;;;;;;4974199;28;20027;-69
2022/01/26 11:19:40;;;;;;;24.90;10.05;;;;;;;;;;4973904;28;20473;-70
2022/01/26 11:22:07;;;;;;;41.72;15.82;;;;;;;;;;4973019;28;20027;-70
2022/01/26 11:24:41;;;;;;;27.13;10.55;;;;;;;;;;4973368;28;20034;-72
2022/01/26 11:27:07;;;;;;;13.75;7.10;;;;;;;;;;4973774;28;20117;-71
2022/01/26 11:29:37;;;;;;;28.38;10.55;;;;;;;;;;4973543;28;20452;-70
2022/01/26 11:32:05;;;;;;;12.73;6.68;;;;;;;;;;4973761;28;20488;-69
2022/01/26 11:34:32;;;;;;;25.30;12.65;;;;;;;;;;4973269;28;20031;-69
2022/01/26 11:36:59;;;;;;;17.85;8.20;;;;;;;;;;4973465;28;20058;-70
2022/01/26 11:42:25;;;;;;;15.77;7.65;;;;;;;;;;4973745;28;20053;-70
2022/01/26 11:45:06;;;;;;;20.05;8.30;;;;;;;;;;4973419;28;20074;-69
2022/01/26 11:47:35;;;;;;;21.85;10.45;;;;;;;;;;4988589;28;20030;-70
2022/01/26 11:50:05;;;;;;;23.02;8.70;;;;;;;;;;4988226;28;20168;-70
2022/01/26 11:52:35;;;;;;;29.98;12.52;;;;;;;;;;4988218;28;20125;-70
2022/01/26 11:55:04;;;;;;;17.45;7.63;;;;;;;;;;4988390;28;20054;-69
2022/01/26 11:57:44;;;;;;;29.20;12.55;;;;;;;;;;4973073;28;20444;-70
2022/01/26 12:00:14;;;;;;;24.88;11.80;;;;;;;;;;4976761;28;20053;-70
2022/01/26 12:05:20;;;;;;;23.52;10.05;;;;;;;;;;4973107;28;20027;-69
2022/01/26 12:07:56;;;;;;;16.38;8.50;;;;;;;;;;4972893;28;20473;-70
2022/01/26 12:10:27;;;;;;;22.77;10.30;;;;;;;;;;4973192;28;20030;-69
2022/01/26 12:13:00;;;;;;;26.63;10.73;;;;;;;;;;4973216;28;20023;-70
2022/01/26 12:15:32;;;;;;;29.77;13.52;;;;;;;;;;4973316;28;20030;-70
2022/01/26 12:18:17;;;;;;;28.50;11.82;;;;;;;;;;4973561;28;20027;-70
2022/01/26 12:34:54;;;;;;;17.45;9.85;;;;;;;;;;4975053;28;20127;-72
2022/01/26 12:45:17;;;;;;;26.95;11.63;;;;;;;;;;4972723;28;20468;-70
2022/01/26 12:47:43;;;;;;;30.20;12.85;;;;;;;;;;4972816;28;20026;-70
2022/01/26 12:50:10;;;;;;;24.45;11.75;;;;;;;;;;4972749;28;20019;-68
2022/01/26 12:52:36;;;;;;;14.32;7.85;;;;;;;;;;4972669;28;20050;-68
2022/01/26 12:55:02;;;;;;;20.83;9.80;;;;;;;;;;4972837;28;20114;-70
2022/01/26 12:57:28;;;;;;;20.92;10.32;;;;;;;;;;4972955;28;20126;-69
2022/01/26 13:00:01;;;;;;;21.33;8.20;;;;;;;;;;4987426;28;20062;-69
2022/01/26 13:02:27;;;;;;;22.25;10.60;;;;;;;;;;4972512;28;20109;-70
2022/01/26 13:05:03;;;;;;;15.88;8.15;;;;;;;;;;4973038;28;20055;-69
2022/01/26 13:07:29;;;;;;;14.32;6.95;;;;;;;;;;4972738;28;20019;-69
2022/01/26 13:09:55;;;;;;;17.33;7.93;;;;;;;;;;4972590;28;20031;-69
2022/01/26 13:12:28;;;;;;;21.15;9.70;;;;;;;;;;4972433;28;20176;-72
2022/01/26 13:15:11;;;;;;;18.00;8.50;;;;;;;;;;4972264;28;20444;-70
2022/01/26 13:17:44;;;;;;;19.20;8.63;;;;;;;;;;4972342;28;20653;-69
2022/01/26 13:20:26;;;;;;;27.50;10.75;;;;;;;;;;4972357;28;20101;-70
2022/01/26 13:23:37;;;;;;;25.52;11.35;;;;;;;;;;4972226;28;20039;-69
2022/01/26 13:31:44;;;;;;;28.75;11.43;;;;;;;;;;4972373;28;20086;-70
2022/01/26 13:39:01;;;;;;;23.10;11.23;;;;;;;;;;4971991;28;20561;-70
2022/01/26 13:41:37;;;;;;;21.70;10.68;;;;;;;;;;4972070;28;20506;-70
2022/01/26 14:01:43;;;;;;;19.70;10.70;;;;;;;;;;4975065;28;20392;-71
2022/01/26 14:04:09;;;;;;;14.07;6.67;;;;;;;;;;4989992;28;20027;-70
2022/01/26 14:06:35;;;;;;;17.73;9.65;;;;;;;;;;4975205;28;20656;-70
2022/01/26 14:09:01;;;;;;;20.05;10.27;;;;;;;;;;4975084;28;20030;-70
2022/01/26 14:11:27;;;;;;;20.30;10.45;;;;;;;;;;4974856;28;20134;-71
2022/01/26 14:13:56;;;;;;;24.70;11.68;;;;;;;;;;4974100;28;20069;-70
2022/01/26 14:16:24;;;;;;;15.98;9.35;;;;;;;;;;4974909;28;20409;-70
2022/01/26 14:19:24;;;;;;;23.45;11.65;;;;;;;;;;4975481;28;20023;-70
2022/01/26 14:27:17;;;;;;;22.23;11.35;;;;;;;;;;4975231;28;20513;-71
2022/01/26 14:32:44;;;;;;;27.98;12.90;;;;;;;;;;4975156;28;20030;-70
2022/01/26 14:40:55;;;;;;;20.25;11.18;;;;;;;;;;4974786;28;20093;-70
2022/01/26 14:51:56;;;;;;;19.50;10.23;;;;;;;;;;4975591;28;20034;-71
2022/01/26 15:51:14;;;;;;;35.17;16.50;;;;;;;;;;4974887;28;20497;-69
2022/01/26 16:07:22;;;;;;;31.88;14.93;;;;;;;;;;4992666;28;20084;-70
2022/01/26 16:12:43;;;;;;;34.15;14.93;;;;;;;;;;4992475;28;20420;-69
2022/01/26 18:33:10;;;;;;;54.03;23.83;;;;;;;;;;5015845;28;20056;-70
2022/01/26 18:51:44;;;;;;;47.90;19.50;;;;;;;;;;5021808;28;20495;-73
2022/01/26 18:54:11;;;;;;;34.30;15.43;;;;;;;;;;5017250;28;20052;-71
2022/01/26 18:56:39;;;;;;;47.20;21.70;;;;;;;;;;5024349;28;20564;-72
2022/01/26 18:59:05;;;;;;;46.65;21.25;;;;;;;;;;5026070;28;20108;-73
2022/01/26 19:01:32;;;;;;;48.28;21.95;;;;;;;;;;5016628;28;21465;-73
2022/01/26 19:03:58;;;;;;;48.67;20.85;;;;;;;;;;5029391;28;20029;-73
2022/01/26 19:06:24;;;;;;;44.72;20.58;;;;;;;;;;5012268;28;20024;-74
2022/01/26 19:08:50;;;;;;;45.65;19.33;;;;;;;;;;5016365;28;20494;-72
2022/01/26 19:11:17;;;;;;;43.67;20.85;;;;;;;;;;5019101;28;20111;-72
2022/01/26 19:13:46;;;;;;;49.72;22.40;;;;;;;;;;5029511;28;20410;-71
2022/01/26 19:16:41;;;;;;;45.80;19.50;;;;;;;;;;5022378;28;20025;-72
2022/01/26 19:22:04;;;;;;;61.13;26.02;;;;;;;;;;5029857;28;20491;-72
2022/01/26 19:24:51;;;;;;;60.80;26.70;;;;;;;;;;5025588;28;20105;-71
2022/01/26 19:27:27;;;;;;;51.08;20.67;;;;;;;;;;5019765;28;20634;-72
2022/01/26 19:51:26;;;;;;;50.72;22.42;;;;;;;;;;5028190;28;20079;-71
2022/01/26 19:53:52;;;;;;;74.53;29.00;;;;;;;;;;5014037;28;20053;-72
2022/01/26 19:56:18;;;;;;;47.80;20.05;;;;;;;;;;5026343;28;20025;-72
2022/01/26 19:58:44;;;;;;;58.00;25.58;;;;;;;;;;5010975;28;20034;-71
2022/01/26 20:01:10;;;;;;;41.78;19.70;;;;;;;;;;5015966;28;20395;-71
2022/01/26 20:03:36;;;;;;;49.97;21.67;;;;;;;;;;5012599;28;20069;-72
2022/01/26 20:06:06;;;;;;;48.78;21.08;;;;;;;;;;5026778;28;20018;-69
2022/01/26 20:11:05;;;;;;;50.38;22.27;;;;;;;;;;5019684;28;20026;-71
2022/01/26 20:13:37;;;;;;;68.15;28.10;;;;;;;;;;5011061;28;20112;-72
2022/01/26 20:16:04;;;;;;;48.17;20.20;;;;;;;;;;5027211;28;20025;-72
2022/01/26 20:18:30;;;;;;;42.75;20.65;;;;;;;;;;5020019;28;20056;-72
2022/01/26 20:21:02;;;;;;;47.95;21.40;;;;;;;;;;5020162;28;20029;-71
2022/01/26 20:23:32;;;;;;;54.75;23.70;;;;;;;;;;5027409;28;20029;-69
2022/01/26 20:26:00;;;;;;;57.88;24.98;;;;;;;;;;4999498;28;20068;-70
2022/01/26 20:28:27;;;;;;;45.55;20.75;;;;;;;;;;5024165;28;20010;-74
2022/01/26 20:30:53;;;;;;;46.00;20.77;;;;;;;;;;5022816;28;20029;-71
2022/01/26 20:33:20;;;;;;;43.38;19.13;;;;;;;;;;5018654;28;20480;-71
2022/01/26 20:35:46;;;;;;;44.17;19.38;;;;;;;;;;5019654;28;20156;-72
2022/01/26 20:38:13;;;;;;;54.53;23.77;;;;;;;;;;5020046;28;20030;-71
2022/01/26 20:40:39;;;;;;;44.63;20.38;;;;;;;;;;5021440;28;20404;-71
2022/01/26 20:43:05;;;;;;;46.92;19.05;;;;;;;;;;5018236;28;20030;-71
2022/01/26 20:45:31;;;;;;;47.45;21.98;;;;;;;;;;5027538;28;20025;-71
2022/01/26 20:47:58;;;;;;;48.10;21.60;;;;;;;;;;5015280;28;20017;-71
2022/01/26 20:50:24;;;;;;;42.53;20.27;;;;;;;;;;5024259;28;20365;-73
2022/01/26 20:52:50;;;;;;;50.25;21.45;;;;;;;;;;5017412;28;20025;-71
2022/01/26 20:55:16;;;;;;;49.92;22.00;;;;;;;;;;5027419;28;20071;-70
2022/01/26 20:57:42;;;;;;;44.33;21.25;;;;;;;;;;5019005;28;20499;-70
2022/01/26 21:00:10;;;;;;;47.05;20.52;;;;;;;;;;5031488;28;20024;-71
2022/01/26 21:02:36;;;;;;;57.90;24.20;;;;;;;;;;5023969;28;20038;-70
2022/01/26 21:05:03;;;;;;;49.97;21.75;;;;;;;;;;5023142;28;20014;-71
2022/01/26 21:07:29;;;;;;;46.15;20.08;;;;;;;;;;5013665;28;20019;-71
2022/01/26 21:09:55;;;;;;;40.95;19.05;;;;;;;;;;5031172;28;20033;-71
2022/01/26 21:12:21;;;;;;;48.08;21.77;;;;;;;;;;5022383;28;20017;-71
2022/01/26 21:14:47;;;;;;;51.78;21.73;;;;;;;;;;5023329;28;20033;-71
2022/01/26 21:17:13;;;;;;;54.58;22.08;;;;;;;;;;5029079;28;20021;-71
2022/01/26 21:19:39;;;;;;;49.90;20.83;;;;;;;;;;5018492;28;20115;-71
2022/01/26 21:22:06;;;;;;;45.80;19.92;;;;;;;;;;5029947;28;20452;-72
2022/01/26 21:24:32;;;;;;;53.45;20.90;;;;;;;;;;5017156;28;20113;-71
2022/01/26 21:26:58;;;;;;;57.78;23.90;;;;;;;;;;5026275;28;20465;-71
2022/01/26 21:29:25;;;;;;;53.78;22.08;;;;;;;;;;5020108;28;20018;-71
2022/01/26 21:31:51;;;;;;;45.40;18.55;;;;;;;;;;5020612;28;20113;-71
2022/01/26 21:34:17;;;;;;;57.97;23.20;;;;;;;;;;5028294;28;20080;-70
2022/01/26 21:36:43;;;;;;;50.47;22.63;;;;;;;;;;5023368;28;20025;-71
2022/01/26 21:39:09;;;;;;;47.15;20.42;;;;;;;;;;5019609;28;20052;-70
2022/01/26 21:41:36;;;;;;;60.17;24.85;;;;;;;;;;5030864;28;20321;-70
2022/01/26 21:44:02;;;;;;;51.13;21.33;;;;;;;;;;5018542;28;20025;-71
2022/01/26 21:46:28;;;;;;;59.50;24.13;;;;;;;;;;5026688;28;20080;-71
2022/01/26 21:48:54;;;;;;;50.45;22.15;;;;;;;;;;5016958;28;20034;-71